Time;durP1;ratioP1;P1;durP2;ratioP2;P2;SDS_P1;SDS_P2;PMS_P1;PMS_P2;Temp;Humidity;BMP_temperature;BMP_pressure;BME280_temperature;BME280_humidity;BME280_pressure;Samples;Min_cycle;Max_cycle;Signal;HPM_P1;HPM_P2
2021/10/07 00:00:52;;;;;;;6.93;3.20;;;;;;;9.97;100.00;101824.63;7394481;19;20418;-54
2021/10/07 00:03:21;;;;;;;3.90;2.70;;;;;;;9.70;100.00;101829.88;7397502;19;20487;-54
2021/10/07 00:05:51;;;;;;;7.90;3.00;;;;;;;9.59;100.00;101832.66;7393207;19;20439;-52
2021/10/07 00:08:21;;;;;;;4.73;3.17;;;;;;;9.40;100.00;101840.03;7398150;19;20388;-52
2021/10/07 00:10:50;;;;;;;5.37;3.10;;;;;;;9.34;100.00;101845.69;7390747;19;20916;-53
2021/10/07 00:13:20;;;;;;;4.83;3.43;;;;;;;9.51;100.00;101853.56;7397032;19;20423;-54
2021/10/07 00:15:52;;;;;;;23.07;14.17;;;;;;;9.57;100.00;101843.66;7392125;19;20491;-52
2021/10/07 00:18:23;;;;;;;7.60;5.20;;;;;;;9.63;100.00;101845.75;7405310;19;20658;-52
2021/10/07 00:20:53;;;;;;;11.73;6.13;;;;;;;9.67;100.00;101847.72;7401364;19;20415;-54
2021/10/07 00:23:26;;;;;;;6.53;4.37;;;;;;;9.50;100.00;101855.28;7404122;19;20713;-55
2021/10/07 00:25:56;;;;;;;9.30;6.07;;;;;;;9.35;100.00;101852.59;7397836;19;20439;-55
2021/10/07 00:28:29;;;;;;;7.83;5.50;;;;;;;9.22;100.00;101852.63;7409207;19;20395;-55
2021/10/07 00:31:04;;;;;;;13.97;8.83;;;;;;;9.29;100.00;101860.81;7397231;19;20889;-54
2021/10/07 00:33:40;;;;;;;15.17;9.03;;;;;;;9.23;100.00;101857.84;7403535;19;20474;-54
2021/10/07 00:36:18;;;;;;;21.47;12.27;;;;;;;9.28;100.00;101869.34;7386768;19;20411;-54
2021/10/07 00:41:30;;;;;;;5.90;3.13;;;;;;;9.13;100.00;101869.22;7398120;19;20471;-53
2021/10/07 00:44:05;;;;;;;12.50;8.17;;;;;;;9.13;100.00;101870.94;7403389;19;20427;-54
2021/10/07 00:46:46;;;;;;;28.03;14.37;;;;;;;9.25;100.00;101866.56;7397796;19;20485;-54
2021/10/07 00:49:16;;;;;;;7.10;4.60;;;;;;;9.31;100.00;101877.28;7403887;19;20654;-53
2021/10/07 00:51:46;;;;;;;10.07;7.20;;;;;;;9.50;100.00;101886.19;7385248;19;20435;-54
2021/10/07 00:54:18;;;;;;;9.00;6.13;;;;;;;9.41;100.00;101883.91;7402008;19;20731;-53
2021/10/07 00:56:48;;;;;;;8.13;5.87;;;;;;;9.42;100.00;101879.63;7399133;19;20733;-54
2021/10/07 00:59:18;;;;;;;16.20;9.37;;;;;;;9.48;100.00;101885.19;7404144;19;20680;-55
2021/10/07 01:01:50;;;;;;;15.13;8.80;;;;;;;9.58;100.00;101892.72;7380909;19;20494;-54
2021/10/07 01:04:20;;;;;;;8.20;5.13;;;;;;;9.39;100.00;101889.75;7402151;19;20427;-56
2021/10/07 01:06:50;;;;;;;8.10;5.70;;;;;;;9.09;100.00;101887.84;7381430;19;20475;-55
2021/10/07 01:09:19;;;;;;;12.60;8.10;;;;;;;9.01;100.00;101879.63;7403958;19;20387;-52
2021/10/07 01:11:49;;;;;;;10.57;7.63;;;;;;;9.07;100.00;101894.56;7395415;19;20498;-54
2021/10/07 01:14:34;;;;;;;14.20;7.47;;;;;;;8.98;100.00;101902.56;7401672;19;20861;-52
2021/10/07 01:17:06;;;;;;;19.30;10.57;;;;;;;9.18;100.00;101905.59;7394402;19;20478;-54
2021/10/07 01:19:41;;;;;;;10.70;5.90;;;;;;;9.08;100.00;101900.63;7400814;19;20418;-54
2021/10/07 01:22:11;;;;;;;14.30;6.70;;;;;;;9.14;100.00;101893.31;7400331;19;20411;-54
2021/10/07 01:24:40;;;;;;;8.60;4.73;;;;;;;8.89;100.00;101890.00;7401874;19;20503;-54
2021/10/07 01:27:11;;;;;;;6.90;5.17;;;;;;;8.83;100.00;101896.41;7397257;19;20511;-54
2021/10/07 01:29:41;;;;;;;11.60;7.20;;;;;;;8.98;100.00;101892.28;7403718;19;20439;-55
2021/10/07 01:32:12;;;;;;;6.67;3.83;;;;;;;8.84;100.00;101895.63;7397668;19;20629;-55
2021/10/07 01:34:44;;;;;;;4.80;4.03;;;;;;;8.80;100.00;101891.94;7401750;19;20933;-55
2021/10/07 01:37:13;;;;;;;11.33;4.80;;;;;;;8.77;100.00;101892.63;7399020;19;20412;-55
2021/10/07 01:39:43;;;;;;;7.33;4.40;;;;;;;8.79;100.00;101895.31;7403234;19;20660;-57
2021/10/07 01:42:12;;;;;;;10.77;6.00;;;;;;;8.84;100.00;101901.66;7396835;19;20495;-53
2021/10/07 01:44:42;;;;;;;7.80;5.57;;;;;;;8.81;100.00;101901.44;7401360;19;20424;-56
2021/10/07 01:47:12;;;;;;;8.57;6.60;;;;;;;8.82;100.00;101904.94;7397630;19;20514;-56
2021/10/07 01:49:44;;;;;;;15.97;6.30;;;;;;;8.84;100.00;101905.91;7402214;19;20861;-55
2021/10/07 01:52:14;;;;;;;11.80;7.87;;;;;;;8.86;100.00;101910.38;7388429;19;20502;-56
2021/10/07 01:54:43;;;;;;;9.43;5.53;;;;;;;8.79;100.00;101900.47;7401283;19;20494;-55
2021/10/07 01:57:17;;;;;;;11.17;4.77;;;;;;;8.80;100.00;101906.47;7395846;19;20427;-56
2021/10/07 01:59:46;;;;;;;8.93;6.20;;;;;;;8.99;100.00;101909.53;7402719;19;20443;-55
2021/10/07 02:02:16;;;;;;;7.53;4.90;;;;;;;8.85;100.00;101908.59;7396094;19;20789;-57
2021/10/07 02:04:48;;;;;;;12.03;7.10;;;;;;;8.85;100.00;101915.41;7400487;19;20520;-56
2021/10/07 02:07:20;;;;;;;15.43;8.67;;;;;;;8.76;100.00;101914.00;7397893;19;20496;-55
2021/10/07 02:09:50;;;;;;;10.20;5.03;;;;;;;8.59;100.00;101920.59;7402518;19;20396;-54
2021/10/07 02:12:19;;;;;;;11.57;6.90;;;;;;;8.59;100.00;101912.88;7393010;19;20427;-53
2021/10/07 02:14:49;;;;;;;10.10;6.73;;;;;;;8.77;100.00;101915.78;7400376;19;20732;-50
2021/10/07 02:17:18;;;;;;;12.00;6.70;;;;;;;8.64;100.00;101919.22;7385708;19;20523;-54
2021/10/07 02:19:51;;;;;;;12.90;6.10;;;;;;;8.63;100.00;101924.25;7402173;19;20383;-50
2021/10/07 02:22:20;;;;;;;11.60;5.97;;;;;;;8.62;100.00;101922.47;7398345;19;20502;-55
2021/10/07 02:24:50;;;;;;;9.60;5.70;;;;;;;8.65;100.00;101930.41;7400135;19;20433;-51
2021/10/07 02:27:19;;;;;;;10.03;6.30;;;;;;;8.65;100.00;101935.53;7394562;19;20412;-51
2021/10/07 02:29:49;;;;;;;8.40;4.57;;;;;;;8.55;100.00;101943.44;7401743;19;20380;-52
2021/10/07 02:32:19;;;;;;;7.73;4.23;;;;;;;8.58;100.00;101947.13;7394419;19;20506;-53
2021/10/07 02:34:51;;;;;;;6.80;4.60;;;;;;;8.53;100.00;101943.31;7399945;19;20486;-54
2021/10/07 02:37:20;;;;;;;11.70;4.37;;;;;;;8.46;100.00;101939.38;7397258;19;20407;-51
2021/10/07 02:39:50;;;;;;;14.80;5.80;;;;;;;8.54;100.00;101950.25;7399567;19;20449;-52
2021/10/07 02:42:19;;;;;;;6.33;4.40;;;;;;;8.51;100.00;101950.94;7388077;19;20427;-53
2021/10/07 02:44:49;;;;;;;9.20;5.77;;;;;;;8.58;100.00;101951.34;7399764;19;20479;-53
2021/10/07 02:47:19;;;;;;;12.60;7.77;;;;;;;8.63;100.00;101963.72;7394150;19;20491;-53
2021/10/07 02:49:51;;;;;;;7.43;4.43;;;;;;;8.44;100.00;101958.97;7401598;19;20398;-51
2021/10/07 02:52:20;;;;;;;5.57;4.10;;;;;;;8.37;100.00;101956.75;7395967;19;20445;-54
2021/10/07 02:54:50;;;;;;;5.33;3.83;;;;;;;8.34;100.00;101962.59;7399083;19;20420;-52
2021/10/07 02:57:19;;;;;;;6.80;4.77;;;;;;;8.41;100.00;101969.03;7396583;19;20455;-52
2021/10/07 02:59:49;;;;;;;5.77;3.50;;;;;;;8.27;100.00;101968.09;7400993;19;20874;-55
2021/10/07 03:02:19;;;;;;;7.50;4.90;;;;;;;8.31;100.00;101972.63;7395794;19;20507;-54
2021/10/07 03:04:52;;;;;;;7.00;5.20;;;;;;;8.42;100.00;101978.56;7399243;19;20705;-52
2021/10/07 03:07:22;;;;;;;7.00;4.77;;;;;;;8.31;100.00;101987.19;7395676;19;20411;-54
2021/10/07 03:09:52;;;;;;;8.33;4.70;;;;;;;8.24;100.00;101980.72;7400770;19;20464;-52
2021/10/07 03:12:21;;;;;;;8.03;4.53;;;;;;;8.20;100.00;101976.16;7392255;19;20435;-52
2021/10/07 03:14:51;;;;;;;7.50;3.80;;;;;;;8.29;100.00;101981.94;7398823;19;20707;-53
2021/10/07 03:17:20;;;;;;;6.87;4.37;;;;;;;8.36;100.00;101991.00;7392905;19;20411;-54
2021/10/07 03:19:52;;;;;;;5.13;3.63;;;;;;;8.06;100.00;101991.47;7400360;19;20383;-55
2021/10/07 03:22:22;;;;;;;5.37;3.30;;;;;;;7.99;100.00;101993.50;7396485;19;20933;-50
2021/10/07 03:24:52;;;;;;;5.40;4.30;;;;;;;7.97;100.00;101999.44;7398589;19;20491;-55
2021/10/07 03:27:21;;;;;;;5.27;3.73;;;;;;;7.73;100.00;101998.50;7392803;19;20422;-53
2021/10/07 03:29:51;;;;;;;3.50;3.20;;;;;;;7.71;100.00;102002.66;7400059;19;20883;-54
2021/10/07 03:32:20;;;;;;;8.53;5.10;;;;;;;8.15;100.00;102005.78;7392353;19;20417;-53
2021/10/07 03:34:53;;;;;;;7.50;4.13;;;;;;;8.15;100.00;102004.09;7402234;19;20437;-52
2021/10/07 03:37:22;;;;;;;6.60;4.40;;;;;;;8.06;100.00;102006.00;7394534;19;20470;-49
2021/10/07 03:39:52;;;;;;;6.00;3.90;;;;;;;7.88;100.00;102013.25;7399764;19;20459;-53
2021/10/07 03:42:21;;;;;;;6.23;3.77;;;;;;;7.78;100.00;102016.84;7375646;19;20407;-53
2021/10/07 03:44:51;;;;;;;5.07;3.60;;;;;;;7.85;100.00;102011.38;7397916;19;20798;-53
2021/10/07 03:47:20;;;;;;;4.77;3.53;;;;;;;7.81;100.00;102020.50;7391969;19;20419;-53
2021/10/07 03:49:53;;;;;;;4.63;3.57;;;;;;;7.80;100.00;102023.88;7399235;19;20391;-53
2021/10/07 03:52:22;;;;;;;6.07;3.63;;;;;;;7.99;100.00;102030.34;7395277;19;20457;-56
2021/10/07 03:54:52;;;;;;;8.63;3.50;;;;;;;8.21;100.00;102032.81;7397479;19;20418;-53
2021/10/07 03:57:23;;;;;;;4.27;3.23;;;;;;;8.17;100.00;102045.34;7376959;19;20687;-53
2021/10/07 03:59:53;;;;;;;3.80;3.33;;;;;;;8.33;100.00;102047.34;7399198;19;20387;-55
2021/10/07 04:02:22;;;;;;;5.60;3.47;;;;;;;8.02;100.00;102045.13;7382392;19;20531;-55
2021/10/07 04:04:55;;;;;;;6.13;3.60;;;;;;;7.60;100.00;102045.53;7397260;19;20733;-52
2021/10/07 04:07:24;;;;;;;6.73;3.00;;;;;;;7.72;100.00;102052.34;7380187;19;20748;-55
2021/10/07 04:09:54;;;;;;;5.43;3.63;;;;;;;7.91;100.00;102049.47;7398965;19;20409;-53
2021/10/07 04:12:24;;;;;;;4.70;3.53;;;;;;;7.74;100.00;102061.09;7391815;19;20759;-53
2021/10/07 04:14:53;;;;;;;7.20;3.57;;;;;;;7.51;100.00;102057.69;7396732;19;20900;-56
2021/10/07 04:17:23;;;;;;;4.47;3.27;;;;;;;7.32;100.00;102074.25;7393152;19;20446;-53
2021/10/07 04:19:55;;;;;;;6.50;3.70;;;;;;;7.27;100.00;102080.72;7398687;19;20395;-55
2021/10/07 04:22:24;;;;;;;8.80;3.27;;;;;;;7.25;100.00;102077.16;7394583;19;20902;-55
2021/10/07 04:24:55;;;;;;;4.80;3.33;;;;;;;7.16;100.00;102083.38;7396565;19;20494;-53
2021/10/07 04:27:25;;;;;;;6.20;3.60;;;;;;;7.55;100.00;102085.41;7391306;19;20411;-55
2021/10/07 04:29:55;;;;;;;4.03;3.10;;;;;;;8.29;100.00;102092.50;7398399;19;20399;-53
2021/10/07 04:32:24;;;;;;;28.53;17.17;;;;;;;8.59;100.00;102082.66;7391198;19;20425;-51
2021/10/07 04:34:57;;;;;;;64.33;35.03;;;;;;;8.81;100.00;102088.44;7396102;19;20427;-52
2021/10/07 04:37:26;;;;;;;34.47;18.23;;;;;;;8.91;100.00;102075.41;7393673;19;20403;-55
2021/10/07 04:39:56;;;;;;;11.17;5.70;;;;;;;8.77;100.00;102074.47;7398227;19;20380;-56
2021/10/07 04:42:25;;;;;;;35.43;21.10;;;;;;;8.47;100.00;102087.78;7391635;19;20414;-56
2021/10/07 04:44:55;;;;;;;61.67;37.97;;;;;;;8.38;100.00;102087.13;7395849;19;20426;-50
2021/10/07 04:47:25;;;;;;;18.50;13.90;;;;;;;8.28;100.00;102089.81;7392011;19;21303;-53
2021/10/07 04:49:57;;;;;;;38.70;17.63;;;;;;;7.93;100.00;102092.50;7397946;19;20394;-56
2021/10/07 04:52:26;;;;;;;5.50;4.50;;;;;;;7.74;100.00;102094.50;7391179;19;20696;-53
2021/10/07 04:54:56;;;;;;;5.43;3.57;;;;;;;7.60;100.00;102109.75;7395303;19;20511;-57
2021/10/07 04:57:26;;;;;;;10.57;3.47;;;;;;;7.52;100.00;102108.25;7392524;19;20478;-54
2021/10/07 04:59:55;;;;;;;5.60;3.53;;;;;;;7.50;100.00;102109.84;7397531;19;20451;-55
2021/10/07 05:02:25;;;;;;;4.80;3.47;;;;;;;7.47;100.00;102120.75;7394500;19;20419;-56
2021/10/07 05:04:57;;;;;;;4.80;4.10;;;;;;;7.39;100.00;102127.88;7402183;19;20420;-56
2021/10/07 05:07:27;;;;;;;6.07;3.63;;;;;;;7.45;100.00;102141.97;7396714;19;20418;-54
2021/10/07 05:09:56;;;;;;;6.53;4.00;;;;;;;7.42;100.00;102143.53;7404702;19;20394;-56
2021/10/07 05:12:26;;;;;;;5.80;4.07;;;;;;;7.45;100.00;102137.75;7396433;19;20427;-57
2021/10/07 05:14:55;;;;;;;7.53;3.83;;;;;;;7.30;100.00;102147.72;7401854;19;20499;-56
2021/10/07 05:17:25;;;;;;;7.23;3.90;;;;;;;7.33;100.00;102158.22;7397570;19;20747;-56
2021/10/07 05:19:57;;;;;;;5.80;3.93;;;;;;;7.35;100.00;102159.25;7404411;19;20470;-55
2021/10/07 05:22:27;;;;;;;5.20;4.40;;;;;;;7.36;100.00;102160.13;7379296;19;20408;-54
2021/10/07 05:24:56;;;;;;;7.27;4.30;;;;;;;7.43;100.00;102157.25;7405308;19;20457;-54
2021/10/07 05:27:26;;;;;;;12.13;3.87;;;;;;;7.35;100.00;102160.91;7397218;19;20472;-55
2021/10/07 05:29:55;;;;;;;7.03;4.33;;;;;;;7.34;100.00;102169.41;7403996;19;20471;-57
2021/10/07 05:32:25;;;;;;;7.87;4.03;;;;;;;7.27;100.00;102170.56;7396030;19;20922;-56
2021/10/07 05:34:57;;;;;;;8.20;4.10;;;;;;;7.24;100.00;102176.38;7401404;19;20503;-57
2021/10/07 05:37:27;;;;;;;5.87;3.90;;;;;;;7.26;100.00;102171.34;7391130;19;20423;-55
2021/10/07 05:39:56;;;;;;;5.23;3.70;;;;;;;7.34;100.00;102180.53;7403665;19;20463;-54
2021/10/07 05:42:26;;;;;;;10.30;5.10;;;;;;;7.37;100.00;102185.03;7396215;19;20449;-55
2021/10/07 05:44:56;;;;;;;9.03;4.67;;;;;;;7.32;100.00;102184.66;7404401;19;20439;-56
2021/10/07 05:47:25;;;;;;;6.67;4.13;;;;;;;7.33;100.00;102183.88;7399706;19;20901;-57
2021/10/07 05:49:57;;;;;;;8.40;4.00;;;;;;;7.31;100.00;102188.03;7407198;19;20421;-57
2021/10/07 05:52:27;;;;;;;8.07;4.30;;;;;;;7.41;100.00;102187.06;7389290;19;20444;-57
2021/10/07 05:54:57;;;;;;;6.47;4.17;;;;;;;7.40;100.00;102200.69;7404139;19;20467;-56
2021/10/07 05:57:27;;;;;;;5.50;4.23;;;;;;;7.35;100.00;102202.00;7387541;19;20888;-56
2021/10/07 05:59:56;;;;;;;7.57;4.70;;;;;;;7.29;100.00;102210.13;7404169;19;20472;-57
2021/10/07 06:02:26;;;;;;;7.57;5.00;;;;;;;7.16;100.00;102216.84;7400240;19;20930;-50
2021/10/07 06:04:58;;;;;;;6.17;4.77;;;;;;;7.12;100.00;102219.94;7403877;19;20435;-49
2021/10/07 06:07:28;;;;;;;5.80;4.40;;;;;;;7.13;100.00;102228.56;7396052;19;20422;-56
2021/10/07 06:09:57;;;;;;;9.17;4.83;;;;;;;7.10;100.00;102234.34;7406702;19;20396;-52
2021/10/07 06:12:27;;;;;;;7.10;4.47;;;;;;;7.16;100.00;102241.63;7386317;19;20491;-56
2021/10/07 06:14:57;;;;;;;8.90;4.77;;;;;;;7.13;100.00;102236.25;7397166;19;20896;-55
2021/10/07 06:17:26;;;;;;;7.40;3.90;;;;;;;7.10;100.00;102239.47;7394585;19;20426;-52
2021/10/07 06:20:03;;;;;;;11.23;5.47;;;;;;;7.07;100.00;102244.34;7402031;19;20392;-54
2021/10/07 06:22:33;;;;;;;7.23;5.00;;;;;;;7.11;100.00;102255.75;7404821;19;20506;-51
2021/10/07 06:25:02;;;;;;;9.43;4.93;;;;;;;7.19;100.00;102257.28;7402321;19;20400;-56
2021/10/07 06:27:32;;;;;;;6.13;4.80;;;;;;;7.26;100.00;102253.50;7400829;19;20467;-53
2021/10/07 06:30:02;;;;;;;46.37;23.93;;;;;;;7.29;100.00;102264.03;7401857;19;20456;-52
2021/10/07 06:32:31;;;;;;;261.53;139.13;;;;;;;7.30;100.00;102261.56;7400807;19;20483;-55
2021/10/07 06:35:03;;;;;;;16.73;6.60;;;;;;;7.41;100.00;102264.09;7400577;19;20394;-51
2021/10/07 06:37:33;;;;;;;9.97;5.67;;;;;;;7.46;100.00;102257.66;7400087;19;20474;-55
2021/10/07 06:40:03;;;;;;;7.37;5.07;;;;;;;7.47;100.00;102276.50;7401572;19;20405;-55
2021/10/07 06:42:32;;;;;;;8.50;5.20;;;;;;;7.52;100.00;102277.78;7400317;19;20477;-54
2021/10/07 06:45:04;;;;;;;12.83;6.90;;;;;;;7.51;100.00;102269.19;7402441;19;20455;-55
2021/10/07 06:47:34;;;;;;;12.80;7.57;;;;;;;7.62;100.00;102275.16;7400190;19;20752;-53
2021/10/07 06:50:09;;;;;;;19.03;11.40;;;;;;;7.81;100.00;102277.47;7401165;19;20395;-54
2021/10/07 06:52:41;;;;;;;29.60;14.20;;;;;;;8.06;100.00;102284.50;7400019;19;20474;-52
2021/10/07 06:55:13;;;;;;;24.50;11.40;;;;;;;8.13;100.00;102291.03;7393355;19;20393;-54
2021/10/07 06:57:43;;;;;;;69.90;34.27;;;;;;;8.10;100.00;102295.91;7400165;19;20395;-56
2021/10/07 07:00:14;;;;;;;19.57;11.73;;;;;;;8.05;100.00;102293.00;7396424;19;20855;-56
2021/10/07 07:02:44;;;;;;;43.13;24.57;;;;;;;8.27;100.00;102304.94;7400014;19;20390;-56
2021/10/07 07:05:16;;;;;;;16.93;9.60;;;;;;;8.33;100.00;102294.22;7399203;19;20396;-55
2021/10/07 07:07:46;;;;;;;17.70;9.00;;;;;;;8.37;100.00;102301.38;7399794;19;20395;-57
2021/10/07 07:10:19;;;;;;;17.17;8.43;;;;;;;8.48;100.00;102304.75;7393694;19;20455;-56
2021/10/07 07:12:51;;;;;;;17.13;8.10;;;;;;;8.60;100.00;102299.66;7399568;19;20423;-56
2021/10/07 07:15:22;;;;;;;10.90;7.00;;;;;;;8.69;100.00;102304.59;7392662;19;20388;-57
2021/10/07 07:17:52;;;;;;;10.00;7.37;;;;;;;8.84;100.00;102307.41;7400971;19;20402;-56
2021/10/07 07:20:24;;;;;;;21.77;12.40;;;;;;;8.90;100.00;102307.88;7393051;19;20400;-54
2021/10/07 07:22:54;;;;;;;13.83;7.20;;;;;;;8.81;100.00;102304.63;7403319;19;20489;-57
2021/10/07 07:25:23;;;;;;;8.07;5.40;;;;;;;8.64;100.00;102309.41;7392812;19;20447;-56
2021/10/07 07:27:53;;;;;;;8.90;5.90;;;;;;;8.59;100.00;102313.31;7399930;19;20410;-55
2021/10/07 07:30:22;;;;;;;13.43;5.70;;;;;;;8.67;100.00;102319.91;7393272;19;20456;-56
2021/10/07 07:32:52;;;;;;;10.60;6.00;;;;;;;8.72;100.00;102321.16;7399910;19;20448;-56
2021/10/07 07:35:25;;;;;;;9.73;5.70;;;;;;;8.70;100.00;102327.88;7393072;19;20849;-56
2021/10/07 07:37:54;;;;;;;9.80;6.57;;;;;;;8.82;100.00;102327.00;7399628;19;20404;-53
2021/10/07 07:40:25;;;;;;;14.77;8.13;;;;;;;8.94;100.00;102343.38;7387005;19;20389;-56
2021/10/07 07:42:54;;;;;;;15.00;8.00;;;;;;;9.11;100.00;102334.28;7399160;19;20419;-57
2021/10/07 07:45:24;;;;;;;10.93;6.90;;;;;;;9.13;100.00;102347.28;7392805;19;20462;-57
2021/10/07 07:47:58;;;;;;;12.60;6.83;;;;;;;9.27;100.00;102343.13;7399466;19;20408;-57
2021/10/07 07:50:32;;;;;;;9.40;6.30;;;;;;;9.39;100.00;102338.84;7391987;19;20431;-54
2021/10/07 07:53:01;;;;;;;10.13;6.13;;;;;;;9.49;100.00;102339.53;7400959;19;20423;-58
2021/10/07 07:55:31;;;;;;;9.83;6.50;;;;;;;9.48;100.00;102336.03;7391051;19;20948;-54
2021/10/07 07:58:00;;;;;;;9.10;5.60;;;;;;;9.53;100.00;102336.41;7401367;19;20384;-57
2021/10/07 08:00:31;;;;;;;9.27;6.10;;;;;;;9.72;100.00;102343.72;7393593;19;20415;-58
2021/10/07 08:03:02;;;;;;;8.30;5.67;;;;;;;9.85;100.00;102345.50;7398340;19;20396;-57
2021/10/07 08:05:35;;;;;;;7.93;6.03;;;;;;;9.95;100.00;102349.63;7391723;19;20675;-57
2021/10/07 08:08:04;;;;;;;9.87;6.07;;;;;;;9.98;100.00;102343.00;7398855;19;20391;-56
2021/10/07 08:10:34;;;;;;;8.80;5.60;;;;;;;10.13;100.00;102330.28;7392057;19;20483;-56
2021/10/07 08:13:05;;;;;;;10.33;6.03;;;;;;;10.21;100.00;102330.78;7397945;19;20408;-57
2021/10/07 08:15:34;;;;;;;9.90;6.10;;;;;;;10.30;100.00;102345.13;7391132;19;20478;-57
2021/10/07 08:18:04;;;;;;;12.10;6.00;;;;;;;10.35;100.00;102342.03;7398458;19;20464;-57
2021/10/07 08:20:37;;;;;;;9.80;5.80;;;;;;;10.42;100.00;102340.78;7391253;19;20419;-52
2021/10/07 08:23:07;;;;;;;8.63;5.70;;;;;;;10.47;100.00;102338.53;7397879;19;20769;-54
2021/10/07 08:25:37;;;;;;;10.33;6.30;;;;;;;10.63;100.00;102338.78;7390894;19;20417;-56
2021/10/07 08:28:07;;;;;;;7.13;5.20;;;;;;;10.70;100.00;102336.59;7402466;19;20399;-57
2021/10/07 08:30:37;;;;;;;10.00;5.43;;;;;;;10.78;100.00;102345.75;7390703;19;20403;-58
2021/10/07 08:33:07;;;;;;;8.93;4.87;;;;;;;10.75;100.00;102332.63;7397722;19;20404;-57
2021/10/07 08:35:39;;;;;;;9.00;5.37;;;;;;;10.85;100.00;102335.03;7394315;19;20490;-56
2021/10/07 08:38:09;;;;;;;13.60;5.30;;;;;;;10.96;100.00;102343.47;7403453;19;20730;-57
2021/10/07 08:40:39;;;;;;;7.30;5.27;;;;;;;11.19;100.00;102344.97;7399749;19;20455;-57
2021/10/07 08:43:08;;;;;;;8.13;5.27;;;;;;;11.34;100.00;102345.06;7404596;19;20411;-57
2021/10/07 08:45:38;;;;;;;8.70;4.60;;;;;;;11.36;100.00;102337.41;7398077;19;20761;-57
2021/10/07 08:48:08;;;;;;;7.77;4.50;;;;;;;11.37;100.00;102344.38;7404888;19;20413;-58
2021/10/07 08:50:40;;;;;;;7.73;4.40;;;;;;;11.45;100.00;102332.81;7398521;19;20419;-58
2021/10/07 08:53:10;;;;;;;7.00;4.23;;;;;;;11.68;100.00;102341.13;7403974;19;20877;-54
2021/10/07 08:55:39;;;;;;;10.30;4.50;;;;;;;11.86;100.00;102338.78;7396381;19;20522;-55
2021/10/07 08:58:12;;;;;;;10.87;5.20;;;;;;;12.00;100.00;102338.78;7404828;19;20384;-58
2021/10/07 09:00:42;;;;;;;12.87;4.57;;;;;;;12.04;100.00;102339.88;7381969;19;20427;-57
2021/10/07 09:03:21;;;;;;;9.00;4.40;;;;;;;12.15;100.00;102339.72;7401852;19;20872;-53
2021/10/07 09:06:10;;;;;;;10.07;4.70;;;;;;;12.33;100.00;102333.88;7397524;19;20490;-56
2021/10/07 09:08:47;;;;;;;9.20;4.00;;;;;;;12.51;100.00;102334.06;7402608;19;20396;-55
2021/10/07 09:11:27;;;;;;;14.87;6.60;;;;;;;12.63;100.00;102331.31;7396374;19;20419;-54
2021/10/07 09:14:05;;;;;;;7.63;4.90;;;;;;;12.79;100.00;102332.19;7401331;19;20433;-57
2021/10/07 09:16:36;;;;;;;9.37;4.70;;;;;;;12.72;100.00;102330.94;7394017;19;20444;-56
2021/10/07 09:19:15;;;;;;;6.53;3.90;;;;;;;12.75;100.00;102338.91;7403095;19;20392;-57
2021/10/07 09:21:49;;;;;;;6.30;4.17;;;;;;;12.86;100.00;102330.88;7396373;19;20518;-57
2021/10/07 09:24:38;;;;;;;5.23;3.53;;;;;;;12.96;100.00;102334.06;7400777;19;20422;-57
2021/10/07 09:27:10;;;;;;;8.60;3.97;;;;;;;13.26;100.00;102337.38;7395421;19;20428;-57
2021/10/07 09:29:44;;;;;;;6.50;3.77;;;;;;;13.36;100.00;102335.41;7402521;19;20456;-53
2021/10/07 09:32:14;;;;;;;5.83;3.47;;;;;;;13.33;100.00;102340.41;7396099;19;20411;-56
2021/10/07 09:34:47;;;;;;;8.07;3.30;;;;;;;13.42;100.00;102337.44;7400013;19;20869;-53
2021/10/07 09:37:21;;;;;;;12.87;5.40;;;;;;;13.78;100.00;102339.41;7392378;19;20431;-56
2021/10/07 09:39:52;;;;;;;4.77;3.43;;;;;;;13.94;100.00;102335.03;7402173;19;20402;-56
2021/10/07 09:42:24;;;;;;;6.20;2.97;;;;;;;13.95;100.00;102335.09;7395584;19;20414;-55
2021/10/07 09:45:06;;;;;;;11.00;4.03;;;;;;;14.07;100.00;102339.16;7399996;19;20453;-55
2021/10/07 09:47:38;;;;;;;6.30;3.40;;;;;;;14.30;100.00;102345.53;7400906;19;20446;-54
2021/10/07 09:50:27;;;;;;;5.73;3.27;;;;;;;14.42;100.00;102337.50;7401789;19;20400;-54
2021/10/07 09:53:04;;;;;;;5.20;3.47;;;;;;;14.41;100.00;102339.22;7401548;19;20416;-55
2021/10/07 09:55:37;;;;;;;6.50;2.63;;;;;;;14.20;100.00;102349.38;7394098;19;20478;-56
2021/10/07 09:58:08;;;;;;;7.50;2.37;;;;;;;14.10;100.00;102348.00;7401867;19;20725;-54
2021/10/07 10:00:39;;;;;;;7.40;2.70;;;;;;;14.17;100.00;102342.31;7396280;19;20415;-56
2021/10/07 10:03:10;;;;;;;5.23;2.50;;;;;;;14.51;100.00;102350.94;7402672;19;20423;-53
2021/10/07 10:05:41;;;;;;;5.90;2.30;;;;;;;14.58;100.00;102344.38;7397909;19;20927;-56
2021/10/07 10:08:15;;;;;;;3.80;2.40;;;;;;;14.42;100.00;102346.19;7401918;19;20443;-55
2021/10/07 10:10:46;;;;;;;4.53;1.97;;;;;;;14.44;100.00;102344.56;7394962;19;20431;-53
2021/10/07 10:13:17;;;;;;;4.33;2.53;;;;;;;14.66;100.00;102345.66;7401386;19;20426;-53
2021/10/07 10:15:47;;;;;;;15.40;8.30;;;;;;;14.98;100.00;102348.97;7395062;19;20432;-56
2021/10/07 10:18:18;;;;;;;6.23;3.43;;;;;;;15.00;100.00;102354.25;7401807;19;20699;-56
2021/10/07 10:20:52;;;;;;;4.33;2.20;;;;;;;14.88;100.00;102354.56;7395474;19;20431;-53
2021/10/07 10:23:26;;;;;;;4.50;1.97;;;;;;;14.97;100.00;102356.69;7400926;19;20483;-57
2021/10/07 10:25:57;;;;;;;6.60;2.10;;;;;;;15.08;100.00;102359.84;7396412;19;20421;-55
2021/10/07 10:28:31;;;;;;;3.70;1.97;;;;;;;15.15;100.00;102361.91;7401151;19;20380;-53
2021/10/07 10:31:05;;;;;;;5.90;1.90;;;;;;;14.88;100.00;102357.16;7396756;19;20909;-56
2021/10/07 10:33:36;;;;;;;7.30;1.97;;;;;;;15.18;100.00;102356.84;7401412;19;20448;-56
2021/10/07 10:36:34;;;;;;;4.10;2.20;;;;;;;15.16;100.00;102362.78;7392856;19;20421;-56
2021/10/07 10:39:10;;;;;;;6.20;1.90;;;;;;;15.14;100.00;102364.44;7401363;19;20384;-55
2021/10/07 10:41:55;;;;;;;5.20;2.00;;;;;;;14.89;100.00;102373.63;7395041;19;20683;-55
2021/10/07 10:44:44;;;;;;;4.00;1.93;;;;;;;15.01;100.00;102368.16;7399414;19;20681;-55
2021/10/07 10:47:32;;;;;;;6.13;2.30;;;;;;;15.50;100.00;102373.09;7394343;19;20508;-54
2021/10/07 10:50:13;;;;;;;3.77;2.00;;;;;;;15.53;100.00;102375.84;7401065;19;20392;-56
2021/10/07 10:52:46;;;;;;;5.07;2.20;;;;;;;15.61;100.00;102383.13;7399482;19;20429;-56
2021/10/07 10:55:20;;;;;;;4.10;1.60;;;;;;;15.73;100.00;102378.50;7394418;19;20380;-55
2021/10/07 10:57:53;;;;;;;5.00;2.20;;;;;;;15.49;100.00;102388.66;7399856;19;20428;-53
2021/10/07 11:00:28;;;;;;;4.83;1.77;;;;;;;15.27;100.00;102389.34;7392920;19;20386;-57
2021/10/07 11:03:22;;;;;;;3.50;1.80;;;;;;;15.48;100.00;102385.16;7400359;19;20714;-55
2021/10/07 11:06:00;;;;;;;4.20;2.07;;;;;;;15.84;100.00;102381.59;7396981;19;20487;-57
2021/10/07 11:08:31;;;;;;;5.93;1.80;;;;;;;15.98;100.00;102383.94;7400447;19;20412;-52
2021/10/07 11:11:11;;;;;;;4.37;1.40;;;;;;;15.64;100.00;102388.50;7394675;19;20892;-53
2021/10/07 11:13:48;;;;;;;4.17;1.67;;;;;;;15.72;100.00;102391.41;7399337;19;20434;-56
2021/10/07 11:16:19;;;;;;;3.07;1.40;;;;;;;16.02;100.00;102389.38;7393624;19;20417;-56
2021/10/07 11:18:50;;;;;;;5.10;1.40;;;;;;;16.05;100.00;102392.13;7400097;19;20654;-52
2021/10/07 11:21:22;;;;;;;3.13;1.50;;;;;;;16.10;100.00;102392.31;7396640;19;20918;-54
2021/10/07 11:23:54;;;;;;;4.23;1.60;;;;;;;15.82;100.00;102398.84;7399839;19;20442;-56
2021/10/07 11:26:31;;;;;;;5.20;2.17;;;;;;;16.07;100.00;102389.59;7392787;19;20478;-56
2021/10/07 11:29:01;;;;;;;5.57;2.60;;;;;;;16.20;100.00;102391.00;7400438;19;20395;-55
2021/10/07 11:31:32;;;;;;;4.73;2.07;;;;;;;16.15;100.00;102402.97;7393176;19;20484;-56
2021/10/07 11:34:03;;;;;;;3.60;1.50;;;;;;;16.11;100.00;102391.53;7398651;19;20444;-56
2021/10/07 11:36:34;;;;;;;2.60;1.33;;;;;;;16.19;100.00;102397.03;7393823;19;20731;-57
2021/10/07 11:39:04;;;;;;;8.60;5.30;;;;;;;16.28;100.00;102393.97;7403335;19;20467;-57
2021/10/07 11:41:37;;;;;;;3.13;1.60;;;;;;;15.90;100.00;102401.81;7394454;19;20424;-56